Wednesday, April 23, 2014, 10:38 AM EDT

KUNV, State College, University Park Airport

Location: State College, PA, United States Lat: 40.85
Local Time: 10:38 AM EDT (14:38 GMT) Lon: -77.85
Time Zone: US/Eastern Elev: 1240 ft

Show me the last for .
Show Decoded

2014-04-23 09:53 METAR KUNV 231353Z 30012G20KT 10SM BKN023 BKN050 05/00 A2982 =
2014-04-23 08:53 METAR KUNV 231253Z 29008G17KT 10SM OVC027 05/M01 A2981 =
2014-04-23 07:53 METAR KUNV 231153Z 29010G15KT 10SM BKN023 OVC031 05/M01 A2979 =
2014-04-23 07:30 METAR KUNV 231130Z 30010G22KT 10SM OVC023 05/M01 A2978 =
2014-04-23 06:53 METAR KUNV 231053Z 28010G22KT 10SM SCT023 OVC033 05/M01 A2975 =
2014-04-23 05:53 METAR KUNV 230953Z 28009G20KT 10SM SCT029 BKN035 05/00 A2974 =
2014-04-23 05:35 METAR KUNV 230935Z AUTO 29013G20KT 10SM SCT027 OVC035 05/M02 A2973 RMK AO2
                 T00491019 =
2014-04-23 05:15 METAR KUNV 230915Z AUTO 29018G26KT 10SM SCT028 OVC035 05/M01 A2972 RMK AO2
                 T00501015 =
2014-04-23 04:55 METAR KUNV 230855Z AUTO 30012G24KT 10SM SCT025 OVC035 05/M02 A2972 RMK AO2
                 T00501017 =
2014-04-23 04:35 METAR KUNV 230835Z AUTO 31011G17KT 10SM DZ SCT025 OVC034 05/M01 A2972 RMK AO2
                 T00501013 =
2014-04-23 04:15 METAR KUNV 230815Z AUTO 30013G18KT 10SM BKN027 BKN032 05/M01 A2972 RMK AO2
                 T00531012 =
2014-04-23 03:55 METAR KUNV 230755Z AUTO 30012G22KT 10SM BKN025 BKN032 06/M02 A2971 RMK AO2
                 T00561016 =
2014-04-23 03:35 METAR KUNV 230735Z AUTO 29014G19KT 10SM SCT025 BKN031 06/M01 A2971 RMK AO2
                 T00561008 =
2014-04-23 03:15 METAR KUNV 230715Z AUTO 30015G22KT 10SM SCT022 SCT028 BKN070 06/M01 A2970 RMK
                 AO2 T00581007 =
2014-04-23 02:55 METAR KUNV 230655Z AUTO 28016G23KT 10SM SCT026 BKN033 OVC080 06/00 A2969 RMK AO2
                 T00621004 =
2014-04-23 02:35 METAR KUNV 230635Z AUTO 29011G19KT 10SM SCT026 BKN031 OVC050 06/00 A2970 RMK AO2
                 T00630001 =
2014-04-23 02:15 METAR KUNV 230615Z AUTO 29015G20KT 10SM BKN023 BKN032 OVC065 07/00 A2970 RMK AO2
                 T00650001 =
2014-04-23 01:55 METAR KUNV 230555Z AUTO 31008G14KT 10SM -DZ OVC026 07/00 A2971 RMK AO2 T00670000
                 10131 20067 =
2014-04-23 01:35 METAR KUNV 230535Z AUTO 30009G15KT 10SM BKN028 OVC034 08/00 A2971 RMK AO2
                 T00751004 =
2014-04-23 01:15 METAR KUNV 230515Z AUTO 29008G17KT 10SM BKN030 OVC040 08/00 A2971 RMK AO2
                 T00761005 =
2014-04-23 00:55 METAR KUNV 230455Z AUTO 30008KT 10SM BKN036 OVC041 08/M01 A2971 RMK AO2
                 T00771010 =
2014-04-23 00:35 METAR KUNV 230435Z AUTO 29009G15KT 10SM OVC036 08/M02 A2971 RMK AO2 T00801018 =
2014-04-23 00:15 METAR KUNV 230415Z AUTO 29010G19KT 10SM OVC036 08/M02 A2972 RMK AO2 T00801022 =
2014-04-22 23:55 METAR KUNV 230355Z AUTO 30009G18KT 10SM OVC038 08/M02 A2972 RMK AO2 T00801024
                 401920080 =
2014-04-22 23:35 METAR KUNV 230335Z AUTO 30010G21KT 10SM OVC038 08/M02 A2972 RMK AO2 T00811025 =
2014-04-22 23:15 METAR KUNV 230315Z AUTO 30014G18KT 10SM OVC036 09/M02 A2972 RMK AO2 T00851016 =
2014-04-22 22:55 METAR KUNV 230255Z AUTO 30007KT 10SM BKN036 OVC042 09/M01 A2972 RMK AO2
                 T00851014 =
2014-04-22 22:35 METAR KUNV 230235Z AUTO 31008G15KT 10SM OVC039 09/M01 A2972 RMK AO2 T00851013 =
2014-04-22 22:15 METAR KUNV 230215Z AUTO 31004KT 10SM BKN037 OVC042 08/M01 A2972 RMK AO2
                 T00841011 =
2014-04-22 21:55 METAR KUNV 230155Z AUTO 33011G15KT 300V360 10SM BKN037 09/M01 A2971 RMK AO2 LTG
                 DSNT NE T00881014 =
2014-04-22 20:53 METAR KUNV 230053Z 31012G19KT 10SM SCT035 10/00 A2966 =
2014-04-22 19:53 METAR KUNV 222353Z 30014G21KT 10SM FEW045 14/02 A2963 =
2014-04-22 18:53 METAR KUNV 222253Z 28011G17KT 10SM SCT046 16/07 A2959 =
2014-04-22 17:53 METAR KUNV 222153Z 25007KT 10SM SCT085 BKN100 14/09 A2959 =
2014-04-22 16:53 METAR KUNV 222053Z 29007KT 10SM SCT050 BKN075 OVC085 15/06 A2959 =
2014-04-22 15:53 METAR KUNV 221953Z 31011G23KT 10SM -RA SCT029 BKN034 OVC050 17/09 A2959 RMK LTG
                 DSNT SW =
2014-04-22 14:53 METAR KUNV 221853Z 23008KT 10SM SCT024 OVC032 19/11 A2961 =
2014-04-22 13:53 METAR KUNV 221753Z 25010KT 10SM BKN025 OVC029 17/11 A2962 =
2014-04-22 12:53 METAR KUNV 221653Z 25010KT 10SM BKN042 BKN048 OVC070 16/10 A2964 =
2014-04-22 11:53 METAR KUNV 221553Z 26009KT 7SM -RA SCT044 OVC050 16/09 A2965 =
2014-04-22 10:53 METAR KUNV 221453Z 00000KT 7SM -DZ OVC060 16/07 A2966 =

Support USWX by starting your Amazon purchase here.